TimeEDT,TemperatureF,Dew PointF,Humidity,Sea Level PressureIn,VisibilityMPH,Wind Direction,Wind SpeedMPH,Gust SpeedMPH,PrecipitationIn,Events,Conditions,WindDirDegrees,DateUTC
12:56 AM,63.9,57.9,81,29.93,9.0,NNE,6.9,-,N/A,,Clear,20,2013-09-03 04:56:00
1:56 AM,61.9,56.8,84,29.94,9.0,Variable,6.9,-,N/A,,Clear,0,2013-09-03 05:56:00
2:56 AM,59.9,56.8,90,29.94,9.0,Variable,5.8,-,N/A,,Clear,0,2013-09-03 06:56:00
3:56 AM,56.8,55.9,97,29.95,8.0,Calm,Calm,-,N/A,,Clear,0,2013-09-03 07:56:00
4:56 AM,55.9,54.9,96,29.96,8.0,SW,5.8,-,N/A,,Clear,230,2013-09-03 08:56:00
5:56 AM,54.9,54.0,97,29.97,8.0,SW,4.6,-,N/A,,Clear,220,2013-09-03 09:56:00
6:56 AM,52.9,52.9,100,29.98,6.0,Variable,5.8,-,N/A,,Clear,0,2013-09-03 10:56:00
7:56 AM,54.9,54.0,97,30.00,6.0,Variable,4.6,-,N/A,,Clear,0,2013-09-03 11:56:00
8:56 AM,59.0,55.9,90,30.03,8.0,Variable,6.9,-,N/A,,Clear,0,2013-09-03 12:56:00
9:30 AM,60.8,53.6,77,30.06,9.0,NW,11.5,-,N/A,,Mostly Cloudy,320,2013-09-03 13:30:00
9:56 AM,61.0,52.0,72,30.05,9.0,NW,10.4,-,N/A,,Overcast,320,2013-09-03 13:56:00
10:41 AM,62.6,51.8,68,30.06,9.0,North,10.4,-,N/A,,Scattered Clouds,10,2013-09-03 14:41:00
10:48 AM,64.4,51.8,64,30.06,9.0,NW,9.2,-,N/A,,Mostly Cloudy,310,2013-09-03 14:48:00
10:56 AM,63.9,50.9,63,30.05,9.0,NW,10.4,-,N/A,,Partly Cloudy,310,2013-09-03 14:56:00
11:56 AM,64.9,52.0,63,30.06,8.0,North,8.1,-,N/A,,Partly Cloudy,360,2013-09-03 15:56:00
12:24 PM,66.2,51.8,60,30.07,9.0,North,8.1,-,N/A,,Mostly Cloudy,350,2013-09-03 16:24:00
12:48 PM,66.2,51.8,60,30.07,9.0,North,8.1,-,N/A,,Scattered Clouds,360,2013-09-03 16:48:00
12:56 PM,66.9,52.9,61,30.06,8.0,Variable,5.8,-,N/A,,Mostly Cloudy,0,2013-09-03 16:56:00
1:17 PM,66.2,53.6,64,30.06,9.0,North,10.4,-,N/A,,Scattered Clouds,10,2013-09-03 17:17:00
1:28 PM,68.0,53.6,60,30.07,8.0,NNW,9.2,-,N/A,,Mostly Cloudy,330,2013-09-03 17:28:00
1:56 PM,68.0,54.0,61,30.05,8.0,Variable,3.5,-,N/A,,Scattered Clouds,0,2013-09-03 17:56:00
2:56 PM,70.9,55.9,59,30.05,9.0,NW,8.1,-,N/A,,Scattered Clouds,320,2013-09-03 18:56:00
3:56 PM,70.9,54.9,57,30.04,9.0,Variable,6.9,-,N/A,,Clear,0,2013-09-03 19:56:00
4:56 PM,72.9,55.9,55,30.03,8.0,Variable,5.8,-,N/A,,Clear,0,2013-09-03 20:56:00
5:56 PM,72.9,55.9,55,30.04,9.0,Variable,6.9,-,N/A,,Clear,0,2013-09-03 21:56:00
6:56 PM,72.0,55.9,57,30.03,9.0,East,5.8,-,N/A,,Clear,100,2013-09-03 22:56:00
7:56 PM,64.9,57.9,78,30.04,8.0,Calm,Calm,-,N/A,,Clear,0,2013-09-03 23:56:00
8:56 PM,61.0,55.9,83,30.05,9.0,Calm,Calm,-,N/A,,Clear,0,2013-09-04 00:56:00
9:56 PM,56.8,54.9,93,30.08,9.0,Calm,Calm,-,N/A,,Clear,0,2013-09-04 01:56:00
10:56 PM,56.8,54.9,93,30.09,9.0,SSE,5.8,-,N/A,,Clear,150,2013-09-04 02:56:00
11:56 PM,55.9,54.0,93,30.09,4.0,SSE,4.6,-,N/A,,Clear,160,2013-09-04 03:56:00